Time;durP1;ratioP1;P1;durP2;ratioP2;P2;SDS_P1;SDS_P2;PMS_P1;PMS_P2;Temp;Humidity;BMP_temperature;BMP_pressure;BME280_temperature;BME280_humidity;BME280_pressure;Samples;Min_cycle;Max_cycle;Signal;HPM_P1;HPM_P2
2023/07/22 00:02:22;;;;;;;3.58;1.77;;;13.50;99.90;;;13.18;100.00;97205.13;5033778;28;20489;-36
2023/07/22 00:04:49;;;;;;;4.00;2.15;;;13.40;99.90;;;13.15;100.00;97202.59;5034557;28;20110;-36
2023/07/22 00:07:15;;;;;;;4.15;2.00;;;13.40;99.90;;;13.11;100.00;97201.06;5035090;28;20081;-36
2023/07/22 00:09:43;;;;;;;4.10;2.08;;;13.40;99.90;;;13.04;100.00;97208.44;5036656;28;20057;-36
2023/07/22 00:12:09;;;;;;;5.15;2.35;;;13.30;99.90;;;13.02;100.00;97206.81;5023508;28;20442;-36
2023/07/22 00:14:40;;;;;;;3.00;2.10;;;13.30;99.90;;;13.01;100.00;97205.97;5031778;28;20035;-36
2023/07/22 00:17:06;;;;;;;2.75;1.83;;;13.30;99.90;;;13.00;100.00;97204.25;5035534;28;20439;-36
2023/07/22 00:19:31;;;;;;;2.70;1.67;;;13.20;99.90;;;12.99;100.00;97199.88;5031684;28;20789;-36
2023/07/22 00:21:57;;;;;;;2.10;1.50;;;13.30;99.90;;;12.94;100.00;97205.41;5026732;28;20120;-36
2023/07/22 00:24:23;;;;;;;4.07;1.83;;;13.20;99.90;;;12.91;100.00;97202.06;5024764;28;20572;-36
2023/07/22 00:26:52;;;;;;;2.90;2.03;;;13.20;99.90;;;12.86;100.00;97204.06;5029543;28;20083;-36
2023/07/22 00:29:17;;;;;;;2.65;1.70;;;13.10;99.90;;;12.81;100.00;97201.63;5031955;28;20051;-36
2023/07/22 00:31:43;;;;;;;2.53;1.90;;;13.10;99.90;;;12.79;100.00;97198.22;5035923;28;20388;-36
2023/07/22 00:34:10;;;;;;;3.17;1.88;;;13.00;99.90;;;12.76;100.00;97199.22;5035391;28;20086;-36
2023/07/22 00:36:37;;;;;;;2.70;1.63;;;13.00;99.90;;;12.73;100.00;97199.38;5038051;28;20035;-36
2023/07/22 00:39:03;;;;;;;2.63;1.75;;;13.00;99.90;;;12.69;100.00;97200.47;5034490;28;20028;-36
2023/07/22 00:41:29;;;;;;;2.20;1.65;;;12.90;99.90;;;12.67;100.00;97198.81;5035845;28;20202;-36
2023/07/22 00:43:54;;;;;;;4.70;1.80;;;12.90;99.90;;;12.65;100.00;97201.56;5036535;28;20565;-36
2023/07/22 00:46:20;;;;;;;3.42;2.00;;;12.90;99.90;;;12.63;100.00;97200.75;5032255;28;20034;-36
2023/07/22 00:48:48;;;;;;;2.78;2.00;;;12.90;99.90;;;12.59;100.00;97193.91;5034300;28;20049;-36
2023/07/22 00:51:14;;;;;;;3.72;1.90;;;12.90;99.90;;;12.60;100.00;97196.47;5033692;28;20071;-36
2023/07/22 00:53:40;;;;;;;2.72;1.88;;;12.80;99.90;;;12.51;100.00;97185.50;5036032;28;20045;-36
2023/07/22 00:56:06;;;;;;;2.72;1.80;;;12.80;99.90;;;12.56;100.00;97205.50;5036204;28;20056;-36
2023/07/22 00:58:33;;;;;;;2.85;1.92;;;12.80;99.90;;;12.55;100.00;97201.13;5033492;28;20045;-36
2023/07/22 01:00:59;;;;;;;2.40;1.90;;;12.80;99.90;;;12.53;100.00;97191.56;5040846;28;20112;-36
2023/07/22 01:03:25;;;;;;;2.80;1.92;;;12.80;99.90;;;12.51;100.00;97185.50;5032492;28;20040;-36
2023/07/22 01:05:52;;;;;;;3.20;2.10;;;12.70;99.90;;;12.49;100.00;97182.91;5038279;28;20191;-36
2023/07/22 01:08:18;;;;;;;3.03;1.92;;;12.70;99.90;;;12.50;100.00;97184.63;5034261;28;20029;-36
2023/07/22 01:10:43;;;;;;;2.13;1.90;;;12.70;99.90;;;12.49;100.00;97184.69;5040386;28;20076;-36
2023/07/22 01:13:09;;;;;;;2.75;1.90;;;12.70;99.90;;;12.47;100.00;97183.91;5034180;28;20064;-37
2023/07/22 01:15:37;;;;;;;3.80;2.17;;;12.70;99.90;;;12.46;100.00;97184.84;5035023;28;20443;-36
2023/07/22 01:18:03;;;;;;;3.17;1.88;;;12.70;99.90;;;12.43;100.00;97187.63;5038468;28;20473;-36
2023/07/22 01:20:30;;;;;;;3.65;2.38;;;12.70;99.90;;;12.40;100.00;97186.84;5032175;28;20535;-36
2023/07/22 01:22:56;;;;;;;4.32;2.30;;;12.60;99.90;;;12.37;100.00;97180.84;5037926;28;20033;-38
2023/07/22 01:25:23;;;;;;;3.08;2.20;;;12.60;99.90;;;12.35;100.00;97178.28;5034807;28;20527;-37
2023/07/22 01:27:50;;;;;;;3.63;2.55;;;12.60;99.90;;;12.36;100.00;97179.13;5039194;28;20029;-36
2023/07/22 01:30:16;;;;;;;3.63;2.30;;;12.60;99.90;;;12.35;100.00;97173.00;5035727;28;20033;-36
2023/07/22 01:32:42;;;;;;;3.00;1.98;;;12.60;99.90;;;12.34;100.00;97168.63;5033665;28;20021;-37
2023/07/22 01:35:08;;;;;;;3.25;2.00;;;12.60;99.90;;;12.34;100.00;97168.63;5034793;28;20052;-36
2023/07/22 01:37:35;;;;;;;3.45;2.10;;;12.60;99.90;;;12.33;100.00;97172.22;5032479;28;20036;-36
2023/07/22 01:40:05;;;;;;;3.97;2.38;;;12.60;99.90;;;12.27;100.00;97153.13;5041426;28;20036;-36
2023/07/22 01:42:31;;;;;;;2.35;2.00;;;12.60;99.90;;;12.19;100.00;97140.28;5031676;28;20036;-36
2023/07/22 01:44:57;;;;;;;2.60;2.00;;;12.50;99.90;;;12.26;100.00;97156.69;5033599;28;20090;-36
2023/07/22 01:47:22;;;;;;;1.90;1.65;;;12.60;99.90;;;12.27;100.00;97156.63;5029259;28;20381;-36
2023/07/22 01:49:48;;;;;;;2.88;2.17;;;12.50;99.90;;;12.30;100.00;97163.56;5036798;28;20061;-36
2023/07/22 01:52:14;;;;;;;2.35;2.00;;;12.60;99.90;;;12.29;100.00;97162.72;5033042;28;20036;-36
2023/07/22 01:54:39;;;;;;;3.33;2.38;;;12.50;99.90;;;12.29;100.00;97162.72;5033096;28;20028;-36
2023/07/22 01:57:05;;;;;;;5.18;2.30;;;12.50;99.90;;;12.32;100.00;97161.69;5031952;28;20025;-36
2023/07/22 01:59:31;;;;;;;2.88;2.00;;;12.50;99.90;;;12.33;100.00;97163.44;5030880;28;20075;-36
2023/07/22 02:01:57;;;;;;;2.60;1.90;;;12.60;99.90;;;12.30;100.00;97161.78;5037636;28;20428;-36
2023/07/22 02:04:22;;;;;;;4.50;2.22;;;12.60;99.90;;;12.27;100.00;97153.97;5029490;28;20111;-36
2023/07/22 02:06:48;;;;;;;3.00;1.98;;;12.50;99.90;;;12.27;100.00;97159.25;5036280;28;20044;-36
2023/07/22 02:09:14;;;;;;;3.15;2.13;;;12.50;99.90;;;12.20;100.00;97149.91;5032803;28;20036;-36
2023/07/22 02:11:39;;;;;;;3.30;2.10;;;12.50;99.90;;;12.22;100.00;97159.50;5036276;28;20064;-36
2023/07/22 02:14:08;;;;;;;2.67;1.77;;;12.50;99.90;;;12.20;100.00;97158.72;5034977;28;20029;-37
2023/07/22 02:16:36;;;;;;;6.75;2.20;;;12.40;99.90;;;12.19;100.00;97166.72;5029603;28;20373;-38
2023/07/22 02:19:03;;;;;;;2.30;1.88;;;12.50;99.90;;;12.05;100.00;97142.72;5036606;28;20032;-37
2023/07/22 02:21:29;;;;;;;3.10;2.15;;;12.40;99.90;;;12.07;100.00;97156.72;5030965;28;20045;-39
2023/07/22 02:23:54;;;;;;;3.78;2.13;;;12.50;99.90;;;12.19;100.00;97175.50;5032446;28;20033;-38
2023/07/22 02:26:20;;;;;;;3.00;2.00;;;12.40;99.90;;;12.18;100.00;97170.28;5029421;28;20868;-38
2023/07/22 02:28:46;;;;;;;3.22;1.77;;;12.40;99.90;;;12.19;100.00;97179.94;5031111;28;20473;-38
2023/07/22 02:31:12;;;;;;;3.45;2.10;;;12.40;99.90;;;12.18;100.00;97180.84;5031948;28;20069;-39
2023/07/22 02:33:38;;;;;;;2.38;1.80;;;12.40;99.90;;;12.06;100.00;97161.16;5027545;28;20024;-40
2023/07/22 02:36:03;;;;;;;2.75;2.00;;;12.40;99.90;;;12.16;100.00;97182.72;5032293;28;20025;-39
2023/07/22 02:38:29;;;;;;;4.00;2.15;;;12.40;99.90;;;12.15;100.00;97181.88;5024958;28;20502;-40
2023/07/22 02:40:55;;;;;;;2.83;2.08;;;12.40;99.90;;;12.14;100.00;97176.66;5031217;28;20472;-38
2023/07/22 02:43:21;;;;;;;2.75;1.90;;;12.40;99.90;;;12.13;100.00;97180.22;5007939;28;20479;-40
2023/07/22 02:45:47;;;;;;;2.78;1.90;;;12.40;99.90;;;12.13;100.00;97175.81;5033183;28;20037;-38
2023/07/22 02:48:14;;;;;;;3.05;2.03;;;12.40;99.90;;;12.11;100.00;97182.91;5028875;28;20053;-40
2023/07/22 02:50:40;;;;;;;3.10;2.20;;;12.40;99.90;;;12.08;100.00;97174.28;5036609;28;20086;-38
2023/07/22 02:53:06;;;;;;;2.67;1.95;;;12.40;99.90;;;12.10;100.00;97178.56;5027124;28;20029;-38
2023/07/22 02:55:32;;;;;;;2.78;2.28;;;12.40;99.90;;;12.12;100.00;97170.59;5030431;28;20047;-38
2023/07/22 02:57:57;;;;;;;2.80;2.15;;;12.40;99.90;;;12.12;100.00;97170.59;5030316;28;20643;-37
2023/07/22 03:00:23;;;;;;;3.85;2.20;;;12.40;99.90;;;12.10;100.00;97167.16;5043931;28;20123;-40
2023/07/22 03:03:02;;;;;;;2.45;1.75;;;12.40;99.90;;;12.00;100.00;97166.72;5030657;28;20037;-37
2023/07/22 03:05:29;;;;;;;3.15;1.77;;;12.30;99.90;;;12.01;100.00;97171.94;5031077;28;20120;-38
2023/07/22 03:07:55;;;;;;;2.75;2.05;;;12.30;99.90;;;12.02;100.00;97167.50;5034838;28;20051;-37
2023/07/22 03:10:21;;;;;;;2.10;1.90;;;12.30;99.90;;;11.99;100.00;97168.50;5034802;28;20190;-38
2023/07/22 03:12:48;;;;;;;3.40;2.00;;;12.30;99.90;;;11.97;100.00;97177.41;5033094;28;20033;-38
2023/07/22 03:15:14;;;;;;;4.55;1.90;;;12.30;99.90;;;11.95;100.00;97168.69;5032555;28;20121;-37
2023/07/22 03:17:43;;;;;;;2.60;2.00;;;12.20;99.90;;;11.94;100.00;97170.50;5035071;28;20028;-37
2023/07/22 03:20:19;;;;;;;2.90;2.10;;;12.20;99.90;;;11.92;100.00;97166.22;5033949;28;20040;-37
2023/07/22 03:22:46;;;;;;;3.53;2.10;;;12.20;99.90;;;11.91;100.00;97167.13;5034553;28;20032;-37
2023/07/22 03:25:13;;;;;;;3.17;2.13;;;12.20;99.90;;;11.90;100.00;97160.09;5038248;28;20570;-37
2023/07/22 03:27:40;;;;;;;3.28;2.00;;;12.20;99.90;;;11.89;100.00;97164.53;5035671;28;20036;-37
2023/07/22 03:30:07;;;;;;;3.20;1.90;;;12.20;99.90;;;11.88;100.00;97162.84;5038773;28;20042;-37
2023/07/22 03:32:34;;;;;;;3.40;2.40;;;12.20;99.90;;;11.85;100.00;97162.97;5038930;28;20041;-39
2023/07/22 03:35:01;;;;;;;3.63;2.10;;;12.20;99.90;;;11.88;100.00;97157.53;5038103;28;20461;-38
2023/07/22 03:37:27;;;;;;;3.53;1.88;;;12.20;99.90;;;11.92;100.00;97163.59;5036175;28;20029;-38
2023/07/22 03:39:53;;;;;;;2.05;1.85;;;12.20;99.90;;;11.91;100.00;97160.06;5034528;28;20040;-38
2023/07/22 03:42:19;;;;;;;2.72;2.08;;;12.20;99.90;;;11.94;100.00;97169.66;5029724;28;20447;-38
2023/07/22 03:44:44;;;;;;;3.10;2.00;;;12.30;99.90;;;11.96;100.00;97167.78;5033227;28;20037;-38
2023/07/22 03:47:10;;;;;;;3.28;2.20;;;12.30;99.90;;;11.99;100.00;97165.88;5031981;28;20412;-37
2023/07/22 03:49:36;;;;;;;2.33;1.90;;;12.30;99.90;;;12.01;100.00;97164.00;5032246;28;20095;-37
2023/07/22 03:52:02;;;;;;;2.97;1.92;;;12.30;99.90;;;11.96;100.00;97159.84;5029347;28;20033;-39
2023/07/22 03:54:27;;;;;;;3.45;1.95;;;12.30;99.90;;;12.02;100.00;97175.41;5034043;28;20053;-38
2023/07/22 03:56:53;;;;;;;4.38;2.20;;;12.30;99.90;;;12.02;100.00;97171.00;5033461;28;20025;-37
2023/07/22 03:59:18;;;;;;;3.72;1.88;;;12.30;99.90;;;12.03;100.00;97170.06;5030115;28;20114;-38
2023/07/22 04:01:45;;;;;;;4.20;2.22;;;12.30;99.90;;;12.01;100.00;97171.94;5030764;28;20025;-37
2023/07/22 04:04:11;;;;;;;3.15;2.10;;;12.30;99.90;;;12.02;100.00;97173.66;5031954;28;20172;-38
2023/07/22 04:06:37;;;;;;;2.35;2.00;;;12.30;99.90;;;12.05;100.00;97177.94;5033557;28;20496;-37
2023/07/22 04:09:02;;;;;;;2.38;1.75;;;12.30;99.90;;;12.08;100.00;97174.28;5033125;28;20056;-38
2023/07/22 04:11:28;;;;;;;3.30;2.17;;;12.40;99.90;;;12.09;100.00;97166.28;5033667;28;20045;-38
2023/07/22 04:13:54;;;;;;;3.03;1.70;;;12.40;99.90;;;12.01;100.00;97147.28;5031505;28;20559;-38
2023/07/22 04:16:19;;;;;;;3.92;2.08;;;12.40;99.90;;;12.11;100.00;97169.69;5034874;28;20111;-37
2023/07/22 04:18:45;;;;;;;3.58;2.00;;;12.40;99.90;;;12.16;100.00;97167.69;5030946;28;20517;-37
2023/07/22 04:21:11;;;;;;;3.40;2.15;;;12.50;99.90;;;12.20;100.00;97173.69;5034877;28;20037;-37
2023/07/22 04:23:37;;;;;;;4.40;2.40;;;12.50;99.90;;;12.24;100.00;97162.06;5036234;28;20021;-36
2023/07/22 04:26:07;;;;;;;2.67;1.95;;;12.50;99.90;;;12.31;100.00;97160.84;5036830;28;20086;-35
2023/07/22 04:28:34;;;;;;;2.55;1.90;;;12.60;99.90;;;12.37;100.00;97163.19;5031181;28;20144;-36
2023/07/22 04:31:00;;;;;;;2.80;2.03;;;12.70;99.90;;;12.31;100.00;97145.00;5037236;28;20040;-36
2023/07/22 04:33:27;;;;;;;2.30;1.90;;;12.70;99.90;;;12.51;100.00;97167.81;5034652;28;20033;-37
2023/07/22 04:35:57;;;;;;;4.13;2.00;;;12.80;99.90;;;12.62;100.00;97166.47;5037268;28;20408;-37
2023/07/22 04:38:22;;;;;;;2.38;1.88;;;12.90;99.90;;;12.65;100.00;97145.13;5034491;28;20029;-37
2023/07/22 04:40:48;;;;;;;2.95;1.95;;;13.00;99.90;;;12.85;100.00;97160.88;5038828;28;20702;-37
2023/07/22 04:43:14;;;;;;;2.75;1.73;;;13.10;99.90;;;12.86;100.00;97141.41;5029210;28;20037;-36
2023/07/22 04:45:40;;;;;;;3.53;2.20;;;13.20;99.90;;;13.01;100.00;97154.81;5037170;28;20408;-38
2023/07/22 04:48:06;;;;;;;5.28;2.33;;;13.30;99.90;;;13.21;100.00;97164.38;5037134;28;20033;-36
2023/07/22 04:50:32;;;;;;;3.10;2.20;;;13.50;99.90;;;13.37;100.00;97168.00;5039113;28;20647;-36
2023/07/22 04:52:58;;;;;;;2.80;1.83;;;13.60;99.90;;;13.49;100.00;97167.31;5036373;28;20099;-37
2023/07/22 04:55:26;;;;;;;3.05;2.25;;;13.70;99.90;;;13.65;100.00;97171.84;5034280;28;20037;-36
2023/07/22 04:57:51;;;;;;;4.90;2.17;;;13.90;99.90;;;13.73;100.00;97165.19;5038771;28;20055;-37
2023/07/22 05:00:18;;;;;;;2.38;1.60;;;14.00;99.90;;;13.81;100.00;97175.38;5035920;28;20476;-36
2023/07/22 05:02:46;;;;;;;3.60;2.35;;;14.10;99.90;;;13.86;100.00;97169.84;5037289;28;20025;-37
2023/07/22 05:05:13;;;;;;;2.50;1.83;;;14.10;99.90;;;13.91;100.00;97171.31;5040786;28;20226;-39
2023/07/22 05:07:38;;;;;;;3.03;1.95;;;14.10;99.90;;;13.96;100.00;97173.69;5034313;28;20737;-37
2023/07/22 05:10:07;;;;;;;3.47;2.08;;;14.20;99.90;;;13.95;100.00;97164.03;5035371;28;20030;-38
2023/07/22 05:12:32;;;;;;;2.45;1.92;;;14.20;99.90;;;14.04;100.00;97166.19;5034673;28;20043;-37
2023/07/22 05:14:58;;;;;;;2.35;1.63;;;14.30;99.90;;;14.10;100.00;97172.94;5038460;28;20040;-37
2023/07/22 05:17:25;;;;;;;2.67;2.03;;;14.40;99.90;;;14.15;100.00;97176.19;5032459;28;20090;-37
2023/07/22 05:19:51;;;;;;;2.83;1.80;;;14.40;99.90;;;14.25;100.00;97180.06;5039653;28;20248;-37
2023/07/22 05:22:16;;;;;;;2.42;1.70;;;14.50;99.90;;;14.42;100.00;97181.78;5036772;28;20098;-37
2023/07/22 05:24:42;;;;;;;3.00;2.00;;;14.60;99.90;;;14.58;100.00;97186.25;5039914;28;20047;-37
2023/07/22 05:27:08;;;;;;;3.50;1.92;;;14.80;99.90;;;14.75;100.00;97179.97;5033592;28;20029;-37
2023/07/22 05:29:34;;;;;;;4.22;1.98;;;14.90;99.90;;;14.93;100.00;97186.91;5036501;28;20043;-37
2023/07/22 05:31:59;;;;;;;2.40;1.80;;;15.10;99.90;;;15.08;100.00;97183.34;5033900;28;20032;-37
2023/07/22 05:34:25;;;;;;;2.42;1.88;;;15.30;99.90;;;15.24;100.00;97185.94;5030342;28;20041;-37
2023/07/22 05:36:51;;;;;;;2.72;1.80;;;15.40;99.90;;;15.34;100.00;97182.75;5032638;28;20560;-37
2023/07/22 05:39:18;;;;;;;2.58;1.65;;;15.50;99.90;;;15.25;100.00;97153.16;5033696;28;20025;-37
2023/07/22 05:41:44;;;;;;;3.20;1.90;;;15.60;99.90;;;15.61;100.00;97194.41;5034550;28;20040;-37
2023/07/22 05:44:10;;;;;;;3.17;1.75;;;15.80;99.90;;;15.80;100.00;97188.81;5038134;28;20029;-37
2023/07/22 05:46:35;;;;;;;4.05;2.00;;;15.90;99.90;;;16.14;100.00;97193.88;5035199;28;21274;-37
2023/07/22 05:49:01;;;;;;;4.28;1.83;;;16.10;99.90;;;16.42;100.00;97201.81;5037359;28;20025;-37
2023/07/22 05:51:27;;;;;;;2.30;1.67;;;16.30;99.90;;;16.64;100.00;97186.28;5035301;28;20486;-38
2023/07/22 05:53:52;;;;;;;4.55;1.80;;;16.50;99.90;;;16.89;100.00;97197.06;5030473;28;20068;-35
2023/07/22 05:56:18;;;;;;;3.15;1.80;;;16.70;99.90;;;16.93;100.00;97198.56;5035502;28;20112;-35
2023/07/22 05:58:44;;;;;;;2.35;1.60;;;16.90;99.90;;;17.07;100.00;97213.63;5036701;28;20037;-35
2023/07/22 06:01:11;;;;;;;2.80;1.75;;;17.00;99.90;;;17.10;100.00;97207.25;5035977;28;20087;-35
2023/07/22 06:03:37;;;;;;;3.53;2.10;;;17.10;99.90;;;17.14;100.00;97212.28;5036773;28;20525;-35
2023/07/22 06:06:04;;;;;;;2.70;1.80;;;17.10;99.90;;;17.14;100.00;97216.75;5033108;28;20057;-35
2023/07/22 06:08:29;;;;;;;3.97;2.25;;;17.20;99.90;;;17.17;100.00;97221.88;5036241;28;20805;-35
2023/07/22 06:10:56;;;;;;;4.63;1.95;;;17.20;99.90;;;17.24;100.00;97225.81;5038308;28;20033;-35
2023/07/22 06:13:22;;;;;;;3.25;1.60;;;17.30;99.90;;;17.35;100.00;97228.66;5027603;28;20088;-35
2023/07/22 06:15:48;;;;;;;3.67;1.80;;;17.40;99.90;;;17.41;100.00;97229.16;5035307;28;20036;-35
2023/07/22 06:18:13;;;;;;;2.33;1.67;;;17.40;99.90;;;17.44;100.00;97234.31;5035150;28;20527;-35
2023/07/22 06:20:39;;;;;;;4.63;2.35;;;17.50;99.90;;;17.47;100.00;97240.28;5035833;28;20033;-35
2023/07/22 06:23:05;;;;;;;2.67;1.80;;;17.60;99.90;;;17.51;100.00;97236.44;5037319;28;20460;-35
2023/07/22 06:25:31;;;;;;;2.78;2.00;;;17.60;99.90;;;17.59;100.00;97238.59;5037125;28;20032;-36
2023/07/22 06:27:56;;;;;;;3.15;2.25;;;17.70;99.90;;;17.67;100.00;97235.41;5026123;28;20111;-35
2023/07/22 06:30:22;;;;;;;3.13;1.90;;;17.80;99.90;;;17.77;100.00;97241.00;5022601;28;20205;-35
2023/07/22 06:32:48;;;;;;;1.75;1.40;;;17.80;99.90;;;17.89;100.00;97229.47;5034495;28;20025;-36
2023/07/22 06:35:13;;;;;;;2.80;1.92;;;17.90;99.90;;;18.05;100.00;97238.16;5029527;28;20030;-34
2023/07/22 06:37:40;;;;;;;2.22;1.90;;;18.10;99.90;;;18.16;100.00;97240.06;5032587;28;20021;-35
2023/07/22 06:40:06;;;;;;;3.78;1.80;;;18.20;99.90;;;18.30;99.70;97250.63;5028254;28;20025;-35
2023/07/22 06:42:32;;;;;;;2.25;1.75;;;18.30;99.90;;;18.40;100.00;97228.63;5025283;28;20261;-35
2023/07/22 06:44:58;;;;;;;3.45;2.08;;;18.40;99.90;;;18.63;100.00;97240.31;5032355;28;20672;-35
2023/07/22 06:47:24;;;;;;;2.38;1.55;;;18.60;99.90;;;18.76;100.00;97241.13;5031836;28;20090;-35
2023/07/22 06:49:50;;;;;;;2.60;1.73;;;18.80;99.90;;;18.92;100.00;97237.38;5035083;28;20302;-35
2023/07/22 06:52:16;;;;;;;2.05;1.50;;;18.90;99.90;;;19.10;99.76;97243.19;5033829;28;20108;-35
2023/07/22 06:54:42;;;;;;;3.50;2.08;;;19.00;99.90;;;19.19;99.00;97237.16;5031599;28;20120;-35
2023/07/22 06:57:08;;;;;;;4.50;1.95;;;19.20;99.90;;;19.31;94.63;97246.06;5033865;28;20029;-36
2023/07/22 06:59:34;;;;;;;2.85;1.92;;;19.30;99.90;;;19.34;95.36;97243.16;5034590;28;20037;-36
2023/07/22 07:02:00;;;;;;;3.10;2.00;;;19.30;99.90;;;19.37;95.71;97250.97;5030212;28;20093;-37
2023/07/22 07:04:26;;;;;;;3.33;1.85;;;19.40;99.90;;;19.40;92.95;97251.59;5034081;28;20040;-36
2023/07/22 07:06:52;;;;;;;2.55;1.90;;;19.40;99.90;;;19.42;94.27;97249.66;5035646;28;20515;-36
2023/07/22 07:09:17;;;;;;;3.17;1.80;;;19.40;99.90;;;19.33;96.31;97252.16;5030915;28;20053;-36
2023/07/22 07:11:43;;;;;;;2.67;1.70;;;19.30;99.90;;;19.26;98.78;97255.28;5034920;28;20025;-36
2023/07/22 07:14:09;;;;;;;2.10;1.67;;;19.30;99.90;;;19.29;98.35;97245.31;5034306;28;20021;-36
2023/07/22 07:16:35;;;;;;;3.45;1.73;;;19.30;99.90;;;19.43;94.39;97251.38;5036684;28;20040;-36
2023/07/22 07:19:01;;;;;;;2.65;1.70;;;19.40;99.90;;;19.60;93.75;97243.88;5036153;28;20029;-36
2023/07/22 07:21:27;;;;;;;4.00;2.20;;;19.50;99.90;;;19.77;93.94;97246.13;5028032;28;20032;-36
2023/07/22 07:23:54;;;;;;;3.10;2.00;;;19.70;99.90;;;20.10;92.68;97254.34;5034022;28;20056;-36
2023/07/22 07:26:21;;;;;;;2.80;1.90;;;19.90;99.90;;;20.27;91.30;97226.25;5033885;28;20071;-36
2023/07/22 07:28:47;;;;;;;4.05;1.85;;;20.10;99.90;;;20.54;83.31;97242.81;5034761;28;20045;-36
2023/07/22 07:31:13;;;;;;;3.20;1.90;;;20.30;99.90;;;20.65;79.61;97236.63;5035907;28;20029;-36
2023/07/22 07:33:39;;;;;;;2.80;2.20;;;20.50;99.90;;;20.67;78.20;97248.06;5034473;28;20037;-36
2023/07/22 07:36:05;;;;;;;3.65;1.80;;;20.60;99.90;;;20.79;74.77;97249.75;5036454;28;20044;-36
2023/07/22 07:38:31;;;;;;;1.88;1.50;;;20.60;99.90;;;20.87;73.23;97242.91;5032992;28;20059;-36
2023/07/22 07:41:11;;;;;;;2.92;1.80;;;20.70;99.90;;;20.90;72.62;97242.66;5036630;28;20048;-36
2023/07/22 07:43:38;;;;;;;1.80;1.50;;;20.80;99.90;;;20.93;68.72;97245.94;5027340;28;20045;-36
2023/07/22 07:46:21;;;;;;;2.15;1.73;;;20.90;99.90;;;20.98;62.95;97256.31;5029038;28;20041;-36
2023/07/22 07:48:53;;;;;;;3.08;1.63;;;21.00;99.90;;;21.07;71.91;97244.00;5034805;28;20048;-36
2023/07/22 07:51:21;;;;;;;4.28;1.90;;;21.00;99.90;;;21.06;59.48;97247.63;5031744;28;20021;-36
2023/07/22 07:53:47;;;;;;;5.07;1.50;;;21.10;99.90;;;21.09;60.37;97229.47;5035626;28;20174;-36
2023/07/22 07:56:15;;;;;;;2.55;1.50;;;21.20;99.90;;;21.28;61.91;97241.34;5040954;28;20037;-36
2023/07/22 07:58:41;;;;;;;2.10;1.55;;;21.30;99.90;;;21.42;61.37;97242.88;5038321;28;20021;-36
2023/07/22 08:01:07;;;;;;;2.58;1.65;;;21.40;99.90;;;21.60;59.91;97245.88;5033589;28;21194;-36
2023/07/22 08:03:34;;;;;;;2.22;1.75;;;21.50;99.90;;;21.74;57.72;97246.41;5030453;28;20041;-36
2023/07/22 08:06:01;;;;;;;4.32;1.85;;;21.70;99.90;;;21.86;60.81;97247.22;5038001;28;20119;-36
2023/07/22 08:08:27;;;;;;;2.97;1.63;;;21.80;99.90;;;21.90;60.91;97237.91;5030327;28;20033;-36
2023/07/22 08:11:13;;;;;;;2.10;1.40;;;21.90;99.90;;;22.08;58.34;97246.22;5036668;28;20110;-36
2023/07/22 08:13:39;;;;;;;3.78;1.48;;;22.00;99.90;;;22.19;57.21;97239.91;5024669;28;20517;-36
2023/07/22 08:16:07;;;;;;;3.30;1.50;;;22.20;99.90;;;22.24;54.13;97245.75;5030305;28;20041;-36
2023/07/22 08:18:34;;;;;;;3.58;1.80;;;22.20;99.90;;;22.24;52.97;97248.44;5019096;28;20037;-36
2023/07/22 08:21:03;;;;;;;2.08;1.63;;;22.20;99.50;;;22.29;55.96;97248.91;5026698;28;20028;-36
2023/07/22 08:23:29;;;;;;;1.95;1.50;;;22.30;99.90;;;22.33;50.88;97244.13;5028440;28;20060;-36
2023/07/22 08:25:54;;;;;;;2.53;1.50;;;22.30;98.70;;;22.21;50.87;97246.00;5033843;28;20082;-36
2023/07/22 08:28:20;;;;;;;1.90;1.40;;;22.40;97.80;;;22.44;50.65;97235.13;5029106;28;20080;-36
2023/07/22 08:30:48;;;;;;;2.45;1.50;;;22.50;97.60;;;22.75;50.13;97235.94;5032400;28;20021;-36
2023/07/22 08:33:14;;;;;;;2.15;1.50;;;22.80;97.30;;;22.97;51.15;97231.31;5029118;28;20021;-36
2023/07/22 08:35:40;;;;;;;2.95;1.50;;;23.10;97.20;;;23.24;48.12;97228.00;5019890;28;20504;-36
2023/07/22 08:38:08;;;;;;;3.30;1.33;;;23.40;95.70;;;23.64;48.54;97225.16;5025270;28;20053;-36
2023/07/22 08:40:39;;;;;;;1.40;1.30;;;23.70;95.60;;;23.85;46.79;97229.59;5032289;28;20037;-38
2023/07/22 08:43:08;;;;;;;2.50;1.30;;;24.00;94.20;;;24.11;43.53;97228.97;5023965;28;20027;-36
2023/07/22 08:45:36;;;;;;;1.48;1.15;;;24.30;92.60;;;24.51;43.99;97234.03;5031437;28;20325;-38
2023/07/22 08:48:09;;;;;;;5.93;1.67;;;24.50;92.50;;;24.20;42.04;97238.84;5035743;28;20124;-38
2023/07/22 08:51:12;;;;;;;1.55;1.30;;;24.60;89.20;;;24.22;43.32;97233.31;5035752;28;20491;-37
2023/07/22 08:53:38;;;;;;;2.20;1.50;;;24.50;90.30;;;24.50;46.25;97236.91;5022355;28;20421;-39
2023/07/22 08:56:04;;;;;;;5.05;1.77;;;24.60;92.80;;;24.74;41.49;97228.31;5025727;28;20078;-37
2023/07/22 08:58:31;;;;;;;3.65;1.30;;;24.90;90.10;;;24.82;38.51;97239.22;5029329;28;20044;-38
2023/07/22 09:00:58;;;;;;;2.35;1.48;;;24.90;82.60;;;24.50;38.75;97237.75;5023973;28;20396;-37
2023/07/22 09:03:24;;;;;;;2.72;1.50;;;24.80;81.80;;;24.40;42.23;97242.31;5010407;28;20117;-39
2023/07/22 09:05:50;;;;;;;2.25;1.42;;;24.60;86.10;;;24.04;44.60;97220.59;5031481;28;20053;-38
2023/07/22 09:08:17;;;;;;;1.88;1.30;;;24.40;90.30;;;24.07;40.91;97238.31;5029055;28;20043;-38
2023/07/22 09:10:43;;;;;;;2.00;1.30;;;24.30;84.50;;;23.99;42.49;97234.53;5031258;28;20124;-38
2023/07/22 09:13:09;;;;;;;1.60;1.15;;;24.10;85.20;;;23.93;40.86;97245.00;5031122;28;20052;-40
2023/07/22 09:15:36;;;;;;;2.13;1.65;;;24.10;84.30;;;23.82;42.94;97228.00;5031322;28;20498;-40
2023/07/22 09:18:03;;;;;;;1.70;1.35;;;24.00;87.10;;;23.72;42.22;97237.06;5026801;28;20030;-39
2023/07/22 09:20:29;;;;;;;2.58;1.50;;;23.90;85.10;;;23.75;42.89;97234.94;5021731;28;20040;-37
2023/07/22 09:22:55;;;;;;;2.05;1.42;;;23.90;86.30;;;23.62;44.46;97229.84;5025454;28;20467;-37
2023/07/22 09:25:24;;;;;;;2.72;1.50;;;23.90;88.20;;;23.57;45.65;97234.81;5030707;28;20033;-38
2023/07/22 09:27:53;;;;;;;3.25;1.55;;;23.90;90.40;;;23.63;45.41;97233.38;5033341;28;20033;-38
2023/07/22 09:30:28;;;;;;;1.80;1.50;;;23.80;89.20;;;23.55;45.68;97239.47;5025560;28;20530;-38
2023/07/22 09:32:57;;;;;;;2.15;1.30;;;23.80;89.80;;;23.54;47.26;97231.53;5030111;28;20036;-37
2023/07/22 09:35:27;;;;;;;2.10;1.63;;;23.70;90.80;;;23.47;49.91;97219.66;5031306;28;21247;-36
2023/07/22 09:37:53;;;;;;;4.43;1.60;;;23.70;93.00;;;23.58;46.68;97224.88;5033105;28;20052;-36
2023/07/22 09:40:27;;;;;;;2.55;1.40;;;23.80;90.40;;;23.70;43.13;97229.13;5032481;28;20068;-38
2023/07/22 09:42:55;;;;;;;3.38;1.60;;;23.90;86.70;;;23.74;44.71;97237.75;5033329;28;20093;-37
2023/07/22 09:45:28;;;;;;;2.00;1.20;;;23.90;88.80;;;23.88;42.45;97220.34;5030989;28;20672;-38
2023/07/22 09:47:56;;;;;;;2.88;1.50;;;24.00;85.20;;;24.05;43.30;97233.09;5032977;28;20033;-37
2023/07/22 09:50:24;;;;;;;1.50;1.20;;;24.20;85.00;;;24.06;40.03;97232.06;5027778;28;20064;-36
2023/07/22 09:52:55;;;;;;;3.80;1.58;;;24.30;81.20;;;23.99;41.40;97221.06;5025963;28;20049;-36
2023/07/22 09:55:24;;;;;;;1.20;1.10;;;24.20;82.80;;;23.81;41.49;97223.63;5008052;28;20419;-38
2023/07/22 09:58:10;;;;;;;2.40;1.30;;;24.00;82.30;;;23.62;42.15;97223.63;5020940;28;20400;-37
2023/07/22 10:00:36;;;;;;;2.00;1.40;;;23.80;86.50;;;23.67;44.41;97218.66;5018059;28;20036;-38
2023/07/22 10:03:05;;;;;;;3.10;1.20;;;23.70;86.70;;;23.76;42.50;97227.69;5026498;28;20033;-37
2023/07/22 10:05:34;;;;;;;1.65;1.35;;;23.90;86.10;;;24.06;39.88;97228.53;5023240;28;20098;-37
2023/07/22 10:08:02;;;;;;;2.25;1.23;;;24.10;82.00;;;24.25;38.27;97228.50;5015422;28;20428;-39
2023/07/22 10:10:38;;;;;;;2.95;1.30;;;24.30;76.40;;;24.46;38.58;97228.28;5018514;28;20041;-40
2023/07/22 10:13:05;;;;;;;1.63;1.33;;;24.50;77.60;;;24.58;39.94;97219.03;5014777;28;20033;-38
2023/07/22 10:15:34;;;;;;;1.40;1.27;;;24.70;79.60;;;24.53;37.59;97226.72;5028055;28;20389;-38